Terminal Aerodrome Forecast
Issued by NWS

Home | Current Version | Previous Version | Graphics & Text | Print | Product List | Glossary On
Versions: 1 2 3 4 5 6 7 8 9 10 11 12 13 14 15 16
000
FTUS43 KMPX 192300
TAFAXN
TAF
KAXN 192329Z 2000/2024 17010KT 3SM BR OVC005
     FM200400 17008KT 1SM BR OVC002
     FM201500 18008KT 4SM BR OVC007
     FM202000 18009KT 6SM HZ OVC015=

USA.gov is the U.S. government's official web portal to all federal, state and local government web resources and services.